Time;durP1;ratioP1;P1;durP2;ratioP2;P2;SDS_P1;SDS_P2;PMS_P1;PMS_P2;Temp;Humidity;BMP_temperature;BMP_pressure;BME280_temperature;BME280_humidity;BME280_pressure;Samples;Min_cycle;Max_cycle;Signal;HPM_P1;HPM_P2
2022/06/13 00:01:11;;;;;;;12.55;4.50;;;15.20;99.90;;;;;;5035486;28;20388;-35
2022/06/13 00:03:37;;;;;;;;;;;15.30;99.90;;;;;;5035851;28;20064;-35
2022/06/13 00:06:03;;;;;;;7.40;3.58;;;15.30;99.90;;;;;;5038729;28;19956;-32
2022/06/13 00:08:29;;;;;;;10.25;2.75;;;15.40;99.90;;;;;;5035993;28;20025;-29
2022/06/13 00:10:54;;;;;;;8.18;3.10;;;15.40;99.90;;;;;;5035283;28;20424;-35
2022/06/13 00:13:20;;;;;;;8.25;3.00;;;15.40;99.90;;;;;;5034989;28;20034;-37
2022/06/13 00:15:46;;;;;;;9.77;2.92;;;15.40;99.90;;;;;;5035391;28;20032;-36
2022/06/13 00:18:11;;;;;;;17.15;3.70;;;15.40;99.90;;;;;;5036003;28;20175;-32
2022/06/13 00:20:37;;;;;;;15.35;4.28;;;15.40;99.90;;;;;;5037802;28;20443;-29
2022/06/13 00:23:03;;;;;;;10.10;4.18;;;15.30;99.90;;;;;;5034086;28;20112;-31
2022/06/13 00:25:29;;;;;;;9.95;3.47;;;15.40;99.90;;;;;;5037112;28;20109;-31
2022/06/13 00:27:55;;;;;;;6.78;3.10;;;15.40;99.90;;;;;;5046829;28;20456;-37
2022/06/13 00:30:21;;;;;;;16.15;4.30;;;15.40;99.90;;;;;;5045448;28;20139;-36
2022/06/13 00:32:47;;;;;;;13.70;4.78;;;15.40;99.90;;;;;;5033582;28;20022;-36
2022/06/13 00:35:13;;;;;;;5.38;3.22;;;15.40;99.90;;;;;;5039469;28;20029;-35
2022/06/13 00:37:38;;;;;;;7.10;3.10;;;15.40;99.90;;;;;;5047025;28;20029;-35
2022/06/13 00:40:05;;;;;;;5.70;2.70;;;15.40;99.90;;;;;;5037483;28;20036;-36
2022/06/13 00:42:31;;;;;;;16.20;4.20;;;15.50;99.90;;;;;;5035035;28;20505;-29
2022/06/13 00:45:05;;;;;;;17.85;4.43;;;15.40;99.90;;;;;;5034955;28;20060;-28
2022/06/13 00:47:31;;;;;;;9.50;3.45;;;15.30;99.90;;;;;;5035118;28;20029;-29
2022/06/13 00:49:58;;;;;;;14.95;3.75;;;15.30;99.90;;;;;;5034354;28;20045;-32
2022/06/13 00:52:30;;;;;;;15.05;4.65;;;15.30;99.90;;;;;;5034862;28;20026;-31
2022/06/13 00:54:56;;;;;;;13.38;3.58;;;15.30;99.90;;;;;;5033876;28;20437;-32
2022/06/13 00:57:27;;;;;;;11.00;4.15;;;15.30;99.90;;;;;;5034925;28;20083;-31
2022/06/13 00:59:58;;;;;;;8.68;3.20;;;15.30;99.90;;;;;;5036528;28;20025;-43
2022/06/13 01:02:24;;;;;;;10.70;3.70;;;15.30;99.90;;;;;;5033287;28;20033;-32
2022/06/13 01:04:52;;;;;;;9.35;3.35;;;15.30;99.90;;;;;;5033429;28;20481;-30
2022/06/13 01:07:20;;;;;;;14.25;3.88;;;15.30;99.90;;;;;;5035207;28;20029;-37
2022/06/13 01:12:32;;;;;;;8.57;3.17;;;15.40;99.90;;;;;;5034996;28;20128;-29
2022/06/13 01:15:21;;;;;;;9.13;3.70;;;15.50;99.90;;;;;;5054070;28;20035;-39
2022/06/13 01:17:52;;;;;;;9.50;3.95;;;15.50;99.90;;;;;;5034324;28;20022;-34
2022/06/13 01:20:54;;;;;;;14.85;3.35;;;15.50;99.90;;;;;;5034856;28;20626;-34
2022/06/13 01:23:57;;;;;;;15.65;4.30;;;15.60;99.90;;;;;;5031990;28;20052;-33
2022/06/13 01:27:03;;;;;;;11.52;3.85;;;15.60;99.90;;;;;;5031526;28;20409;-35
2022/06/13 01:29:50;;;;;;;12.20;3.97;;;15.50;99.90;;;;;;5043922;28;20488;-36
2022/06/13 01:32:37;;;;;;;12.03;3.10;;;15.60;99.90;;;;;;5034598;28;20074;-29
2022/06/13 01:35:23;;;;;;;17.08;3.67;;;15.60;99.90;;;;;;5033930;28;20367;-30
2022/06/13 01:38:21;;;;;;;11.63;4.40;;;15.60;99.90;;;;;;5035098;28;20017;-32
2022/06/13 01:40:57;;;;;;;;;;;15.60;99.90;;;;;;5044627;28;20099;-28
2022/06/13 01:43:41;;;;;;;9.27;2.70;;;15.60;99.90;;;;;;5034259;28;19991;-29
2022/06/13 01:46:23;;;;;;;11.15;3.08;;;15.60;99.90;;;;;;5040393;28;20039;-35
2022/06/13 01:49:22;;;;;;;13.95;3.05;;;15.60;99.90;;;;;;5037806;28;20052;-29
2022/06/13 01:51:57;;;;;;;13.35;3.50;;;15.60;99.90;;;;;;5046311;28;20037;-32
2022/06/13 01:54:34;;;;;;;15.23;4.22;;;15.70;99.90;;;;;;5039206;28;20040;-30
2022/06/13 01:57:13;;;;;;;9.18;3.50;;;15.70;99.90;;;;;;5037283;28;20024;-32
2022/06/13 02:00:07;;;;;;;13.45;4.13;;;15.70;99.90;;;;;;5043678;28;20463;-35
2022/06/13 02:02:59;;;;;;;9.63;3.80;;;15.60;99.90;;;;;;5032765;28;20494;-30
2022/06/13 02:05:34;;;;;;;12.73;4.07;;;15.60;99.90;;;;;;5032839;28;20036;-32
2022/06/13 02:08:22;;;;;;;17.02;4.05;;;15.60;99.90;;;;;;5033115;28;20033;-30
2022/06/13 02:11:04;;;;;;;11.77;4.03;;;15.60;99.90;;;;;;5036050;28;20021;-28
2022/06/13 02:13:37;;;;;;;11.43;3.67;;;15.50;99.90;;;;;;5033403;28;20500;-33
2022/06/13 02:16:10;;;;;;;6.18;3.38;;;15.50;99.90;;;;;;5033069;28;20067;-31
2022/06/13 02:18:48;;;;;;;12.20;4.18;;;15.60;99.90;;;;;;5033019;28;20040;-35
2022/06/13 02:21:14;;;;;;;8.68;3.70;;;15.60;99.90;;;;;;5036977;28;20044;-31
2022/06/13 02:23:47;;;;;;;13.63;4.78;;;15.60;99.90;;;;;;5032496;28;20030;-32
2022/06/13 02:26:24;;;;;;;12.00;4.13;;;15.50;99.90;;;;;;5032830;28;20086;-38
2022/06/13 02:29:27;;;;;;;12.32;5.15;;;15.60;99.90;;;;;;5032662;28;20040;-31
2022/06/13 02:31:59;;;;;;;12.52;5.55;;;15.50;99.90;;;;;;5032259;28;20021;-35
2022/06/13 02:34:45;;;;;;;14.63;4.57;;;15.50;99.90;;;;;;5032985;28;20021;-33
2022/06/13 02:37:19;;;;;;;15.90;5.10;;;15.50;99.90;;;;;;5033496;28;20040;-29
2022/06/13 02:39:52;;;;;;;14.15;4.93;;;15.50;99.90;;;;;;5038769;28;20539;-32
2022/06/13 02:42:35;;;;;;;7.57;4.75;;;15.40;99.90;;;;;;5032812;28;20823;-35
2022/06/13 02:45:03;;;;;;;15.00;4.80;;;15.40;99.90;;;;;;5032581;28;20041;-35
2022/06/13 02:47:42;;;;;;;12.52;4.80;;;15.40;99.90;;;;;;5037287;28;20025;-37
2022/06/13 02:50:17;;;;;;;13.15;5.15;;;15.40;99.90;;;;;;5032740;28;20367;-35
2022/06/13 02:52:46;;;;;;;17.10;5.63;;;15.40;99.90;;;;;;5038422;28;20469;-35
2022/06/13 02:55:15;;;;;;;15.80;5.78;;;15.40;99.90;;;;;;5050722;28;20401;-36
2022/06/13 02:57:40;;;;;;;17.50;5.57;;;15.40;99.90;;;;;;5038079;28;20033;-36
2022/06/13 03:00:16;;;;;;;20.98;5.57;;;15.50;99.90;;;;;;5035879;28;20087;-33
2022/06/13 03:02:55;;;;;;;18.33;5.60;;;15.50;99.90;;;;;;5055055;28;20039;-35
2022/06/13 03:05:55;;;;;;;22.50;6.53;;;15.50;99.90;;;;;;5048892;28;20041;-35
2022/06/13 03:08:33;;;;;;;19.98;5.13;;;15.50;99.90;;;;;;5044582;28;20025;-38
2022/06/13 03:11:08;;;;;;;15.20;6.38;;;15.40;99.90;;;;;;5044178;28;20021;-37
2022/06/13 03:13:40;;;;;;;21.55;6.15;;;15.40;99.90;;;;;;5054044;28;20041;-35
2022/06/13 03:16:28;;;;;;;21.42;6.72;;;15.30;99.90;;;;;;5036641;28;20040;-36
2022/06/13 03:19:02;;;;;;;20.63;6.57;;;15.30;99.90;;;;;;5035581;28;20485;-32
2022/06/13 03:21:36;;;;;;;19.25;6.32;;;15.40;99.90;;;;;;5045007;28;20033;-30
2022/06/13 03:24:19;;;;;;;17.63;6.35;;;15.30;99.90;;;;;;5035134;28;20132;-29
2022/06/13 03:26:57;;;;;;;22.35;6.07;;;15.30;99.90;;;;;;5035914;28;20025;-29
2022/06/13 03:29:26;;;;;;;21.38;5.65;;;15.30;99.90;;;;;;5040759;28;20056;-29
2022/06/13 03:31:56;;;;;;;15.77;5.07;;;15.30;99.90;;;;;;5035100;28;20028;-29
2022/06/13 03:34:27;;;;;;;29.42;7.47;;;15.30;99.90;;;;;;5035812;28;20041;-32
2022/06/13 03:37:22;;;;;;;22.27;6.20;;;15.30;99.90;;;;;;5035679;28;20108;-34
2022/06/13 03:39:53;;;;;;;14.73;4.80;;;15.30;99.90;;;;;;5036099;28;20465;-32
2022/06/13 03:42:33;;;;;;;22.35;5.57;;;15.30;99.90;;;;;;5036129;28;20036;-36
2022/06/13 03:45:06;;;;;;;25.48;6.65;;;15.40;99.90;;;;;;5043796;28;20025;-35
2022/06/13 03:47:41;;;;;;;14.85;5.97;;;15.40;99.90;;;;;;5039433;28;20044;-35
2022/06/13 03:50:16;;;;;;;26.25;6.88;;;15.40;99.90;;;;;;5035975;28;20501;-38
2022/06/13 03:52:48;;;;;;;16.58;4.82;;;15.40;99.90;;;;;;5038118;28;20409;-36
2022/06/13 03:55:26;;;;;;;26.48;5.65;;;15.40;99.90;;;;;;5035764;28;20116;-35
2022/06/13 03:58:09;;;;;;;30.52;5.78;;;15.40;99.90;;;;;;5036934;28;20052;-28
2022/06/13 04:01:00;;;;;;;18.73;4.70;;;15.40;99.90;;;;;;5038221;28;20034;-28
2022/06/13 04:03:27;;;;;;;15.25;5.32;;;15.40;99.90;;;;;;5035266;28;20053;-34
2022/06/13 04:05:59;;;;;;;24.13;6.45;;;15.40;99.90;;;;;;5036931;28;20029;-28
2022/06/13 04:08:27;;;;;;;20.45;5.43;;;15.30;99.90;;;;;;5039902;28;20705;-33
2022/06/13 04:11:16;;;;;;;18.08;4.90;;;15.30;99.90;;;;;;5039546;28;20508;-46
2022/06/13 04:13:41;;;;;;;18.35;5.07;;;15.30;99.90;;;;;;5035965;28;20029;-34
2022/06/13 04:16:21;;;;;;;17.17;4.80;;;15.30;99.90;;;;;;5043136;28;20509;-34
2022/06/13 04:19:33;;;;;;;22.10;5.90;;;15.30;99.90;;;;;;5052447;28;20044;-34
2022/06/13 04:22:02;;;;;;;21.17;5.82;;;15.30;99.90;;;;;;5050763;28;20131;-34
2022/06/13 04:25:07;;;;;;;11.02;4.72;;;15.40;99.90;;;;;;5038082;28;20631;-29
2022/06/13 04:27:47;;;;;;;11.30;3.58;;;15.40;99.90;;;;;;5039591;28;20021;-34
2022/06/13 04:30:18;;;;;;;24.27;4.65;;;15.40;99.90;;;;;;5043132;28;20076;-35
2022/06/13 04:33:02;;;;;;;16.13;3.13;;;15.40;99.90;;;;;;5050896;28;20041;-34
2022/06/13 04:35:31;;;;;;;11.90;3.47;;;15.40;99.90;;;;;;5043456;28;20037;-35
2022/06/13 04:38:00;;;;;;;10.38;3.28;;;15.30;99.90;;;;;;5034983;28;20064;-34
2022/06/13 04:40:27;;;;;;;9.32;2.50;;;15.30;99.90;;;;;;5043551;28;20421;-37
2022/06/13 04:42:54;;;;;;;8.20;3.22;;;15.30;99.90;;;;;;5042050;28;20037;-36
2022/06/13 04:45:24;;;;;;;11.63;2.63;;;15.40;99.90;;;;;;5044789;28;20382;-43
2022/06/13 04:47:52;;;;;;;8.60;2.58;;;15.40;99.90;;;;;;5052431;28;20445;-34
2022/06/13 04:50:26;;;;;;;10.38;2.70;;;15.50;99.90;;;;;;5051161;28;20021;-34
2022/06/13 04:52:54;;;;;;;12.02;2.70;;;15.50;99.90;;;;;;5046375;28;20033;-34
2022/06/13 04:55:32;;;;;;;10.38;2.17;;;15.50;99.90;;;;;;5033939;28;20502;-40
2022/06/13 04:57:58;;;;;;;10.05;2.60;;;15.50;99.90;;;;;;5038212;28;20025;-35
2022/06/13 05:00:24;;;;;;;7.80;2.55;;;15.60;99.90;;;;;;5034584;28;20037;-57
2022/06/13 05:02:54;;;;;;;14.10;2.42;;;15.60;99.90;;;;;;5045934;28;20034;-35
2022/06/13 05:05:44;;;;;;;6.70;2.35;;;15.70;99.90;;;;;;5037280;28;20032;-34
2022/06/13 05:08:13;;;;;;;7.70;2.35;;;15.70;99.90;;;;;;5053365;28;20111;-45
2022/06/13 05:10:43;;;;;;;9.32;2.85;;;15.60;99.90;;;;;;5035876;28;20025;-35
2022/06/13 05:13:09;;;;;;;16.83;3.08;;;15.60;99.90;;;;;;5036410;28;20030;-37
2022/06/13 05:15:35;;;;;;;9.70;2.17;;;15.60;99.90;;;;;;5043363;28;20036;-37
2022/06/13 05:18:25;;;;;;;8.45;2.78;;;15.50;99.90;;;;;;5034624;28;20037;-36
2022/06/13 05:21:09;;;;;;;12.27;2.47;;;15.50;99.90;;;;;;5041250;28;20091;-34
2022/06/13 05:24:06;;;;;;;12.43;3.13;;;15.60;99.90;;;;;;5047592;28;20102;-36
2022/06/13 05:26:31;;;;;;;16.25;1.85;;;15.60;99.90;;;;;;5053373;28;20063;-37
2022/06/13 05:32:21;;;;;;;12.05;1.50;;;15.70;99.90;;;;;;5036285;28;20043;-39
2022/06/13 05:34:47;;;;;;;10.02;1.52;;;15.70;99.90;;;;;;5040425;28;20481;-33
2022/06/13 05:37:13;;;;;;;12.13;1.67;;;15.60;99.90;;;;;;5034456;28;20030;-36
2022/06/13 05:39:39;;;;;;;11.95;2.00;;;15.70;99.90;;;;;;5034833;28;20026;-37
2022/06/13 05:42:06;;;;;;;10.73;1.80;;;15.80;99.90;;;;;;5033293;28;20459;-35
2022/06/13 05:44:31;;;;;;;10.75;1.45;;;15.90;99.90;;;;;;5036193;28;20492;-32
2022/06/13 05:46:57;;;;;;;4.93;1.08;;;15.90;99.90;;;;;;5036713;28;20056;-30
2022/06/13 05:49:23;;;;;;;6.65;1.38;;;16.10;99.90;;;;;;5033383;28;20064;-29
2022/06/13 05:51:49;;;;;;;5.65;1.38;;;16.10;99.90;;;;;;5035297;28;20036;-32
2022/06/13 05:54:14;;;;;;;5.75;1.35;;;15.90;99.90;;;;;;5048581;28;20517;-32
2022/06/13 05:56:40;;;;;;;4.18;1.92;;;15.90;99.90;;;;;;5054113;28;20025;-30
2022/06/13 05:59:07;;;;;;;6.28;1.35;;;15.90;99.90;;;;;;5049861;28;20029;-32
2022/06/13 06:01:35;;;;;;;2.25;0.95;;;15.90;99.90;;;;;;5053561;28;20162;-29
2022/06/13 06:04:01;;;;;;;8.50;1.50;;;16.00;99.90;;;;;;5050116;28;20405;-36
2022/06/13 06:06:29;;;;;;;5.97;1.30;;;16.00;99.90;;;;;;5041221;28;20034;-32
2022/06/13 06:08:55;;;;;;;11.93;2.00;;;16.00;99.90;;;;;;5041820;28;20104;-29
2022/06/13 06:11:22;;;;;;;6.25;1.58;;;15.90;99.90;;;;;;5053299;28;20025;-30
2022/06/13 06:13:47;;;;;;;4.90;1.30;;;15.80;99.90;;;;;;5053542;28;20488;-37
2022/06/13 06:16:15;;;;;;;8.48;1.73;;;15.90;99.90;;;;;;5053016;28;20037;-30
2022/06/13 06:18:41;;;;;;;4.13;1.30;;;16.00;99.90;;;;;;5053222;28;20512;-32
2022/06/13 06:21:07;;;;;;;6.03;1.95;;;16.10;99.90;;;;;;5053390;28;20033;-32
2022/06/13 06:23:33;;;;;;;9.60;1.73;;;17.10;99.90;;;;;;5053336;28;20039;-32
2022/06/13 06:25:58;;;;;;;6.18;2.10;;;17.30;99.90;;;;;;5053120;28;20232;-30
2022/06/13 06:28:26;;;;;;;9.30;2.13;;;17.20;99.90;;;;;;5052003;28;20025;-32
2022/06/13 06:30:53;;;;;;;;;;;17.00;99.90;;;;;;5052982;28;20444;-31
2022/06/13 06:33:21;;;;;;;5.68;1.63;;;17.10;99.90;;;;;;5053168;28;19915;-33
2022/06/13 06:35:48;;;;;;;8.77;3.47;;;17.50;99.90;;;;;;5053379;28;20488;-28
2022/06/13 06:38:14;;;;;;;1.02;0.90;;;18.20;99.90;;;;;;5053201;28;20473;-31
2022/06/13 06:40:39;;;;;;;4.70;1.33;;;18.40;99.90;;;;;;5053025;28;20484;-33
2022/06/13 06:43:06;;;;;;;8.32;1.60;;;17.90;99.90;;;;;;5052114;28;20037;-29
2022/06/13 06:45:35;;;;;;;11.00;1.95;;;17.60;99.90;;;;;;5033123;28;20039;-30
2022/06/13 06:48:01;;;;;;;6.38;1.05;;;18.90;99.90;;;;;;5033103;28;20034;-32
2022/06/13 06:50:31;;;;;;;2.15;1.02;;;19.80;99.90;;;;;;5033188;28;20048;-34
2022/06/13 06:52:57;;;;;;;3.72;1.45;;;19.20;99.90;;;;;;5033037;28;20073;-30
2022/06/13 07:00:58;;;;;;;8.27;1.27;;;17.40;99.90;;;;;;5033256;28;20527;-29
2022/06/13 07:03:24;;;;;;;5.10;1.17;;;17.10;99.90;;;;;;5033051;28;20025;-33
2022/06/13 07:05:51;;;;;;;1.40;0.73;;;17.30;99.90;;;;;;5032989;28;20040;-30
2022/06/13 07:08:16;;;;;;;2.83;0.90;;;17.80;99.90;;;;;;5032916;28;20566;-30
2022/06/13 07:10:45;;;;;;;1.42;0.60;;;18.50;99.90;;;;;;5032825;28;20030;-34
2022/06/13 07:13:12;;;;;;;5.78;0.52;;;18.90;99.90;;;;;;5032874;28;20075;-30
2022/06/13 07:15:37;;;;;;;6.60;1.02;;;19.60;99.90;;;;;;5032845;28;20485;-33
2022/06/13 07:18:03;;;;;;;1.92;0.75;;;20.30;99.90;;;;;;5032849;28;20037;-30
2022/06/13 07:20:29;;;;;;;5.07;0.80;;;21.00;99.90;;;;;;5032921;28;20489;-34
2022/06/13 07:22:54;;;;;;;5.72;0.68;;;21.40;99.40;;;;;;5033053;28;20029;-33
2022/06/13 07:25:25;;;;;;;4.53;0.65;;;21.70;99.20;;;;;;5031513;28;20052;-30
2022/06/13 07:27:50;;;;;;;4.72;1.08;;;21.80;99.00;;;;;;5032815;28;20083;-32
2022/06/13 07:30:18;;;;;;;3.45;0.80;;;21.90;99.10;;;;;;5032734;28;20033;-33
2022/06/13 07:32:44;;;;;;;;;;;21.70;99.10;;;;;;5033209;28;20087;-35
2022/06/13 07:35:12;;;;;;;1.45;0.52;;;21.00;99.10;;;;;;5032704;28;19913;-33
2022/06/13 07:40:21;;;;;;;3.45;0.80;;;21.40;99.50;;;;;;5032954;28;19970;-32
2022/06/13 07:42:51;;;;;;;6.22;1.05;;;21.00;99.30;;;;;;5034253;28;20536;-37
2022/06/13 07:45:22;;;;;;;8.65;1.10;;;19.50;99.90;;;;;;5036198;28;20033;-32
2022/06/13 07:47:49;;;;;;;4.38;1.02;;;18.30;99.90;;;;;;5036564;28;20377;-31
2022/06/13 07:50:16;;;;;;;4.93;1.38;;;17.80;99.90;;;;;;5036372;28;20055;-29
2022/06/13 07:52:42;;;;;;;3.03;1.08;;;17.40;99.90;;;;;;5036494;28;20044;-36
2022/06/13 07:55:08;;;;;;;8.63;1.48;;;17.20;99.90;;;;;;5036141;28;20030;-34
2022/06/13 07:57:34;;;;;;;4.60;0.93;;;17.10;99.90;;;;;;5036126;28;20041;-30
2022/06/13 08:00:00;;;;;;;2.72;0.93;;;17.20;99.90;;;;;;5036059;28;20452;-47
2022/06/13 08:02:30;;;;;;;3.92;0.85;;;17.30;99.90;;;;;;5035991;28;20064;-35
2022/06/13 08:04:56;;;;;;;4.90;1.52;;;17.20;99.90;;;;;;5035950;28;20450;-36
2022/06/13 08:07:21;;;;;;;6.25;0.77;;;17.10;99.90;;;;;;5035922;28;20056;-35
2022/06/13 08:09:47;;;;;;;4.78;1.05;;;17.20;99.90;;;;;;5035753;28;20030;-37
2022/06/13 08:12:16;;;;;;;1.70;0.75;;;17.20;99.90;;;;;;5035742;28;20030;-37
2022/06/13 08:14:45;;;;;;;7.93;0.95;;;17.20;99.90;;;;;;5035781;28;20025;-37
2022/06/13 08:17:12;;;;;;;9.43;1.10;;;17.10;99.90;;;;;;5035781;28;20033;-37
2022/06/13 08:19:37;;;;;;;11.20;1.42;;;16.80;99.90;;;;;;5035691;28;20033;-36
2022/06/13 08:22:03;;;;;;;5.45;1.38;;;16.50;99.90;;;;;;5035612;28;20545;-36
2022/06/13 08:24:29;;;;;;;2.45;0.70;;;16.50;99.90;;;;;;5035367;28;20092;-37
2022/06/13 08:26:54;;;;;;;2.13;0.70;;;16.80;99.90;;;;;;5035814;28;20155;-54
2022/06/13 08:29:20;;;;;;;6.32;0.88;;;17.40;99.90;;;;;;5035439;28;20026;-37
2022/06/13 08:31:46;;;;;;;3.60;1.05;;;17.70;99.90;;;;;;5035586;28;20362;-37
2022/06/13 08:34:11;;;;;;;2.53;1.17;;;17.70;99.90;;;;;;5035788;28;20022;-37
2022/06/13 08:36:37;;;;;;;1.77;0.55;;;17.70;99.90;;;;;;5035382;28;20434;-37
2022/06/13 08:39:03;;;;;;;3.50;0.52;;;17.40;99.90;;;;;;5035367;28;20104;-58
2022/06/13 08:42:20;;;;;;;7.53;0.77;;;17.10;99.90;;;;;;5035594;28;20488;-37
2022/06/13 08:45:04;;;;;;;9.70;1.33;;;16.90;99.90;;;;;;5034846;28;20052;-37
2022/06/13 08:47:44;;;;;;;5.15;1.00;;;16.70;99.90;;;;;;5035249;28;20504;-38
2022/06/13 08:50:33;;;;;;;9.85;1.17;;;16.70;99.90;;;;;;5034978;28;20490;-54
2022/06/13 08:53:09;;;;;;;6.53;0.75;;;17.00;99.90;;;;;;5035046;28;20029;-35
2022/06/13 08:55:37;;;;;;;3.65;0.80;;;17.30;99.90;;;;;;5034430;28;20510;-37
2022/06/13 08:58:16;;;;;;;7.30;1.40;;;18.20;99.90;;;;;;5035006;28;20501;-39
2022/06/13 09:01:07;;;;;;;3.08;0.90;;;18.80;99.90;;;;;;5035003;28;20532;-38
2022/06/13 09:03:51;;;;;;;3.42;0.68;;;18.70;99.90;;;;;;5033781;28;20473;-45
2022/06/13 09:06:23;;;;;;;1.50;0.63;;;18.20;99.90;;;;;;5034912;28;20041;-37
2022/06/13 09:09:02;;;;;;;2.55;1.05;;;17.50;99.90;;;;;;5034725;28;20030;-37
2022/06/13 09:11:37;;;;;;;2.10;0.80;;;17.50;99.90;;;;;;5034731;28;20057;-36
2022/06/13 09:14:23;;;;;;;12.57;0.80;;;18.10;99.90;;;;;;5034776;28;20036;-36
2022/06/13 09:17:01;;;;;;;4.80;0.90;;;18.10;99.90;;;;;;5034743;28;20564;-36
2022/06/13 09:19:32;;;;;;;8.82;1.35;;;18.10;99.90;;;;;;5033017;28;20056;-36
2022/06/13 09:22:04;;;;;;;3.92;1.80;;;18.20;99.90;;;;;;5034579;28;20550;-37
2022/06/13 09:24:46;;;;;;;3.50;0.80;;;18.50;99.90;;;;;;5034308;28;20045;-35
2022/06/13 09:27:18;;;;;;;3.45;1.15;;;18.40;99.90;;;;;;5034450;28;20029;-37
2022/06/13 09:30:13;;;;;;;2.30;0.75;;;17.90;99.90;;;;;;5034393;28;20029;-37
2022/06/13 09:32:47;;;;;;;5.88;0.77;;;17.50;99.90;;;;;;5034262;28;20033;-37
2022/06/13 09:35:33;;;;;;;5.35;0.73;;;17.80;99.90;;;;;;5034275;28;20541;-38
2022/06/13 09:38:50;;;;;;;2.97;1.08;;;17.70;99.90;;;;;;5033070;28;20087;-34
2022/06/13 09:41:36;;;;;;;3.88;0.75;;;17.40;99.90;;;;;;5032835;28;20048;-35
2022/06/13 09:44:11;;;;;;;6.80;0.88;;;17.40;99.90;;;;;;5032696;28;20033;-33
2022/06/13 09:46:54;;;;;;;3.65;0.80;;;17.80;99.90;;;;;;5034102;28;20486;-34
2022/06/13 09:49:39;;;;;;;2.58;1.27;;;18.20;99.90;;;;;;5034309;28;20021;-32
2022/06/13 09:52:25;;;;;;;1.52;0.60;;;18.60;99.90;;;;;;5033961;28;20033;-31
2022/06/13 09:55:01;;;;;;;3.83;0.70;;;18.60;99.90;;;;;;5034253;28;20538;-33
2022/06/13 09:57:32;;;;;;;3.38;0.50;;;18.80;99.90;;;;;;5034194;28;20029;-30
2022/06/13 10:00:12;;;;;;;2.17;0.98;;;19.30;99.90;;;;;;5033835;28;20033;-29
2022/06/13 10:02:59;;;;;;;4.63;1.00;;;19.70;99.20;;;;;;5034021;28;20112;-31
2022/06/13 10:05:37;;;;;;;7.32;0.82;;;19.50;99.20;;;;;;5033478;28;20065;-35
2022/06/13 10:08:25;;;;;;;;;;;18.70;99.90;;;;;;5034367;28;20375;-35
2022/06/13 10:11:13;;;;;;;4.03;1.13;;;17.90;99.90;;;;;;5030498;28;19959;-35
2022/06/13 10:14:03;;;;;;;6.78;1.10;;;17.70;99.90;;;;;;5033483;28;20025;-35
2022/06/13 10:16:47;;;;;;;2.95;1.02;;;18.20;99.90;;;;;;5033749;28;20473;-30
2022/06/13 10:19:35;;;;;;;3.10;1.10;;;18.50;99.90;;;;;;5033607;28;20025;-32
2022/06/13 10:22:14;;;;;;;3.45;0.88;;;18.50;99.90;;;;;;5033431;28;20025;-32
2022/06/13 10:24:47;;;;;;;3.97;0.75;;;18.50;99.90;;;;;;5033183;28;20053;-31
2022/06/13 10:27:43;;;;;;;5.03;1.10;;;18.70;99.90;;;;;;5033421;28;20029;-32
2022/06/13 10:30:20;;;;;;;2.83;0.80;;;18.60;99.90;;;;;;5033484;28;20029;-38
2022/06/13 10:32:57;;;;;;;7.50;1.35;;;18.00;99.90;;;;;;5033627;28;20477;-33
2022/06/13 10:35:37;;;;;;;8.77;1.10;;;18.10;99.90;;;;;;5033683;28;20496;-35
2022/06/13 10:38:12;;;;;;;1.95;0.50;;;18.60;99.90;;;;;;5033295;28;20025;-31
2022/06/13 10:40:39;;;;;;;2.10;1.20;;;19.20;99.10;;;;;;5033271;28;20033;-33
2022/06/13 10:43:05;;;;;;;3.30;0.60;;;18.80;99.10;;;;;;5033312;28;20048;-31
2022/06/13 10:45:32;;;;;;;1.23;0.60;;;18.40;99.90;;;;;;5033094;28;20148;-33
2022/06/13 10:48:18;;;;;;;;;;;18.80;99.90;;;;;;5033542;28;20030;-33
2022/06/13 10:50:51;;;;;;;3.05;0.80;;;19.20;99.70;;;;;;5032778;28;19909;-33
2022/06/13 10:53:21;;;;;;;3.03;1.02;;;19.20;99.00;;;;;;5033133;28;20510;-30
2022/06/13 10:55:49;;;;;;;1.75;0.50;;;19.40;99.80;;;;;;5033029;28;20386;-33
2022/06/13 10:58:37;;;;;;;7.43;1.25;;;19.40;99.90;;;;;;5033325;28;20493;-30
2022/06/13 11:01:13;;;;;;;3.05;0.80;;;18.70;99.90;;;;;;5033003;28;20108;-34
2022/06/13 11:03:57;;;;;;;3.25;1.27;;;18.00;99.30;;;;;;5033339;28;20485;-36
2022/06/13 11:06:30;;;;;;;1.08;0.50;;;17.70;98.90;;;;;;5033106;28;20033;-31
2022/06/13 11:09:01;;;;;;;2.45;0.70;;;18.00;99.90;;;;;;5033065;28;20037;-32
2022/06/13 11:11:33;;;;;;;3.08;0.60;;;18.40;99.90;;;;;;5031677;28;20029;-33
2022/06/13 11:13:59;;;;;;;5.05;1.10;;;18.60;98.90;;;;;;5033206;28;20033;-32
2022/06/13 11:22:39;;;;;;;4.53;0.90;;;18.80;99.10;;;;;;5036834;28;20059;-45
2022/06/13 11:25:22;;;;;;;3.33;0.47;;;18.80;99.00;;;;;;5036666;28;20056;-47
2022/06/13 11:28:11;;;;;;;1.75;0.50;;;18.40;98.70;;;;;;5036679;28;20040;-40
2022/06/13 11:30:50;;;;;;;3.15;1.35;;;18.50;99.70;;;;;;5036616;28;20037;-38
2022/06/13 11:33:18;;;;;;;3.08;0.70;;;18.70;99.40;;;;;;5036917;28;20425;-38
2022/06/13 11:35:43;;;;;;;5.80;0.82;;;18.30;99.70;;;;;;5036485;28;20025;-37
2022/06/13 11:38:29;;;;;;;2.33;0.60;;;17.90;99.90;;;;;;5036464;28;20025;-38
2022/06/13 11:41:22;;;;;;;7.80;0.73;;;18.30;99.90;;;;;;5036402;28;20088;-36
2022/06/13 11:44:01;;;;;;;3.53;0.73;;;18.50;98.30;;;;;;5036292;28;20100;-38
2022/06/13 11:46:27;;;;;;;5.43;0.73;;;18.40;99.60;;;;;;5036301;28;20029;-36
2022/06/13 11:48:54;;;;;;;2.38;0.60;;;18.50;99.80;;;;;;5036449;28;20022;-29
2022/06/13 11:51:35;;;;;;;1.27;0.25;;;18.90;97.70;;;;;;5036258;28;20420;-33
2022/06/13 11:54:01;;;;;;;2.63;0.43;;;18.90;97.80;;;;;;5036243;28;20105;-30
2022/06/13 11:56:30;;;;;;;2.70;0.50;;;18.90;97.90;;;;;;5036167;28;20056;-34
2022/06/13 11:58:59;;;;;;;1.75;0.57;;;19.10;97.70;;;;;;5036369;28;20039;-32
2022/06/13 12:01:37;;;;;;;7.57;0.60;;;19.00;98.10;;;;;;5036128;28;20092;-34
2022/06/13 12:04:11;;;;;;;5.65;0.80;;;19.10;98.90;;;;;;5036353;28;20041;-32
2022/06/13 12:06:49;;;;;;;3.50;0.85;;;19.30;99.90;;;;;;5036032;28;20033;-32
2022/06/13 12:09:17;;;;;;;2.38;0.73;;;19.40;97.40;;;;;;5036203;28;20400;-35
2022/06/13 12:12:03;;;;;;;;;;;19.60;98.20;;;;;;5036137;28;20021;-35
2022/06/13 12:14:32;;;;;;;4.47;0.90;;;19.90;97.40;;;;;;5035480;28;19917;-32
2022/06/13 12:17:08;;;;;;;4.93;1.05;;;19.40;98.40;;;;;;5035864;28;20025;-31
2022/06/13 12:19:52;;;;;;;8.13;1.00;;;19.10;98.00;;;;;;5034694;28;20053;-37
2022/06/13 12:22:44;;;;;;;1.67;0.57;;;18.70;97.80;;;;;;5035666;28;20064;-34
2022/06/13 12:25:19;;;;;;;7.35;1.38;;;18.60;97.80;;;;;;5035474;28;20046;-48
2022/06/13 12:27:54;;;;;;;5.25;0.73;;;18.90;98.00;;;;;;5035524;28;20037;-38
2022/06/13 12:30:45;;;;;;;11.95;0.70;;;18.80;97.70;;;;;;5034499;28;20496;-38
2022/06/13 12:33:16;;;;;;;5.22;0.82;;;19.00;97.50;;;;;;5035486;28;20362;-35
2022/06/13 12:36:10;;;;;;;2.67;0.68;;;18.90;98.20;;;;;;5035455;28;20029;-36
2022/06/13 12:38:45;;;;;;;1.08;0.63;;;18.80;98.80;;;;;;5035380;28;20045;-33
2022/06/13 12:41:41;;;;;;;5.82;0.73;;;18.30;97.80;;;;;;5035618;28;20041;-34
2022/06/13 12:44:25;;;;;;;5.75;0.93;;;18.30;97.90;;;;;;5035271;28;20038;-30
2022/06/13 12:47:16;;;;;;;7.93;1.15;;;18.30;98.20;;;;;;5035117;28;20037;-31
2022/06/13 12:49:59;;;;;;;3.10;0.88;;;18.80;97.90;;;;;;5035286;28;20435;-33
2022/06/13 12:52:42;;;;;;;4.32;1.30;;;19.20;97.90;;;;;;5035151;28;20044;-33
2022/06/13 12:55:38;;;;;;;6.90;0.95;;;19.40;97.20;;;;;;5035099;28;20026;-30
2022/06/13 12:58:27;;;;;;;10.98;1.20;;;19.40;97.50;;;;;;5035228;28;20385;-32
2022/06/13 13:01:02;;;;;;;3.22;1.17;;;19.60;97.10;;;;;;5033837;28;20515;-33
2022/06/13 13:03:31;;;;;;;3.70;1.08;;;19.90;97.20;;;;;;5034836;28;20029;-31
2022/06/13 13:06:09;;;;;;;3.83;0.73;;;19.70;97.00;;;;;;5034705;28;20048;-33
2022/06/13 13:08:47;;;;;;;5.22;0.90;;;19.10;97.20;;;;;;5034811;28;20091;-32
2022/06/13 13:11:23;;;;;;;4.03;1.27;;;18.80;97.80;;;;;;5034679;28;20112;-35
2022/06/13 13:14:18;;;;;;;1.90;0.70;;;18.80;98.20;;;;;;5034663;28;20029;-32
2022/06/13 13:16:54;;;;;;;3.45;0.70;;;18.60;97.70;;;;;;5034700;28;20075;-34
2022/06/13 13:19:44;;;;;;;3.58;1.40;;;18.60;98.10;;;;;;5034838;28;20029;-31
2022/06/13 13:22:34;;;;;;;6.07;0.90;;;19.20;98.80;;;;;;5034740;28;20022;-33
2022/06/13 13:25:26;;;;;;;4.50;0.98;;;19.70;97.70;;;;;;5034022;28;20053;-36
2022/06/13 13:28:10;;;;;;;6.22;0.77;;;19.70;98.20;;;;;;5034362;28;20029;-30
2022/06/13 13:31:24;;;;;;;4.20;0.90;;;19.80;97.60;;;;;;5034318;28;20029;-32
2022/06/13 13:34:11;;;;;;;17.15;1.40;;;19.50;97.40;;;;;;5033990;28;20055;-38
2022/06/13 13:37:00;;;;;;;2.38;0.73;;;19.40;97.90;;;;;;5034203;28;20037;-30
2022/06/13 13:39:42;;;;;;;6.78;1.23;;;19.40;97.10;;;;;;5034045;28;20479;-41
2022/06/13 13:42:28;;;;;;;4.85;0.90;;;19.40;98.20;;;;;;5032401;28;20108;-35
2022/06/13 13:45:03;;;;;;;12.02;1.30;;;19.80;97.50;;;;;;5033994;28;20492;-38
2022/06/13 13:47:34;;;;;;;8.18;0.80;;;20.20;97.70;;;;;;5034101;28;20029;-33